createdAt,value
2022-12-05T00:04:51.093Z,1018.08
2022-12-05T00:18:51.136Z,1017.95
2022-12-05T00:32:51.210Z,1017.84
2022-12-05T00:46:51.212Z,1018.08
2022-12-05T01:00:51.257Z,1018.48
2022-12-05T01:14:51.235Z,1018.52
2022-12-05T01:28:51.238Z,1018.47
2022-12-05T01:42:51.321Z,1018.29
2022-12-05T01:56:51.260Z,1018.15
2022-12-05T02:10:51.298Z,1018.42
2022-12-05T02:24:51.305Z,1018.33
2022-12-05T02:38:51.318Z,1018.13
2022-12-05T02:52:51.318Z,1018.06
2022-12-05T03:06:51.305Z,1017.76
2022-12-05T03:20:51.349Z,1017.86
2022-12-05T03:34:51.348Z,1017.62
2022-12-05T03:48:51.329Z,1017.43
2022-12-05T04:02:51.471Z,1017.64
2022-12-05T04:16:51.637Z,1017.61
2022-12-05T04:30:51.876Z,1017.48
2022-12-05T04:44:51.774Z,1017.38
2022-12-05T04:58:51.778Z,1017.39
2022-12-05T05:12:51.813Z,1017.33
2022-12-05T05:26:57.036Z,1017.44
2022-12-05T05:40:51.807Z,1017.45
2022-12-05T05:54:51.850Z,1017.67
2022-12-05T06:08:51.950Z,1017.71
2022-12-05T06:22:51.956Z,1018.08
2022-12-05T06:36:51.946Z,1018.16
2022-12-05T06:51:52.123Z,1018.14
2022-12-05T07:06:52.248Z,1018.33
2022-12-05T07:21:52.211Z,1018.12
2022-12-05T07:38:52.221Z,1018.14
2022-12-05T07:53:52.279Z,1018.27
2022-12-05T08:08:52.312Z,1018.37
2022-12-05T08:23:52.419Z,1018.35
2022-12-05T08:38:52.380Z,1018.52
2022-12-05T08:53:52.419Z,1018.67
2022-12-05T09:08:52.454Z,1018.51
2022-12-05T09:23:52.547Z,1018.34
2022-12-05T09:38:52.599Z,1018.18
2022-12-05T09:53:52.530Z,1018.08
2022-12-05T10:08:52.623Z,1018.03
2022-12-05T10:23:57.852Z,1017.85
2022-12-05T10:38:52.731Z,1017.63
2022-12-05T10:58:54.289Z,1017.5
2022-12-05T11:13:54.250Z,1017.39
2022-12-05T11:28:54.313Z,1017.19
2022-12-05T11:43:54.313Z,1017.07
2022-12-05T11:59:54.299Z,1016.75
2022-12-05T12:14:54.293Z,1017.25
2022-12-05T12:29:54.595Z,1016.71
2022-12-05T12:44:54.655Z,1016.54
2022-12-05T12:59:54.780Z,1016.6
2022-12-05T13:14:54.830Z,1016.36
2022-12-05T13:29:54.868Z,1016.17
2022-12-05T13:44:55.031Z,1016.14
2022-12-05T13:59:55.170Z,1015.83
2022-12-05T14:14:55.068Z,1015.73
2022-12-05T14:29:55.337Z,1015.53
2022-12-05T14:45:55.183Z,1015.46
2022-12-05T15:00:55.110Z,1015.68
2022-12-05T15:15:55.183Z,1015.75
2022-12-05T15:30:55.318Z,1015.6
2022-12-05T15:45:55.378Z,1015.52
2022-12-05T15:59:55.316Z,1015.38
2022-12-05T16:13:55.335Z,1015.89
2022-12-05T16:27:55.335Z,1015.7
2022-12-05T16:41:55.337Z,1015.89
2022-12-05T16:55:55.335Z,1015.53
2022-12-05T17:09:55.341Z,1015.46
2022-12-05T17:23:55.382Z,1015.27
2022-12-05T17:37:55.422Z,1015.29
2022-12-05T17:52:20.861Z,1015.31
2022-12-05T18:05:55.456Z,1015.34
2022-12-05T18:19:55.453Z,1015.34
2022-12-05T18:33:55.453Z,1015.28
2022-12-05T18:48:04.421Z,1015.32
2022-12-05T19:01:55.592Z,1015.35
2022-12-05T19:15:55.476Z,1015.39
2022-12-05T19:29:55.575Z,1015.52
2022-12-05T19:43:55.536Z,1015.42
2022-12-05T19:57:55.572Z,1015.4
2022-12-05T20:11:56.093Z,1015.31
2022-12-05T20:25:55.586Z,1015.34
2022-12-05T20:39:55.838Z,1015.22
2022-12-05T20:53:55.662Z,1015.28
2022-12-05T21:07:55.670Z,1015.13
2022-12-05T21:21:55.641Z,1015.47
2022-12-05T21:35:55.637Z,1015.47
2022-12-05T21:49:55.931Z,1015.52
2022-12-05T22:03:55.738Z,1015.48
2022-12-05T22:17:55.768Z,1015.5
2022-12-05T22:31:56.263Z,1015.52
2022-12-05T22:45:56.288Z,1015.49
2022-12-05T22:59:56.375Z,1015.61
2022-12-05T23:14:01.266Z,1015.61
2022-12-05T23:27:56.378Z,1015.55
2022-12-05T23:41:56.550Z,1015.41
2022-12-05T23:55:56.884Z,1015.42
